Time;durP1;ratioP1;P1;durP2;ratioP2;P2;SDS_P1;SDS_P2;PMS_P1;PMS_P2;Temp;Humidity;BMP_temperature;BMP_pressure;BME280_temperature;BME280_humidity;BME280_pressure;Samples;Min_cycle;Max_cycle;Signal;HPM_P1;HPM_P2
2023/09/05 00:02:22;;;;;;;9.75;5.00;;;;;;;12.69;100.00;100652.16;5158736;27;20309;-60
2023/09/05 00:04:48;;;;;;;9.70;4.68;;;;;;;12.68;100.00;100651.38;5158953;27;20119;-60
2023/09/05 00:07:16;;;;;;;24.42;7.55;;;;;;;12.62;100.00;100655.47;5158424;27;20419;-58
2023/09/05 00:09:43;;;;;;;10.45;5.22;;;;;;;12.63;100.00;100650.81;5158875;27;20042;-61
2023/09/05 00:12:09;;;;;;;11.43;5.18;;;;;;;12.58;100.00;100656.50;5158440;27;20051;-57
2023/09/05 00:14:36;;;;;;;9.73;5.07;;;;;;;12.55;100.00;100649.75;5158828;27;20102;-61
2023/09/05 00:17:02;;;;;;;6.38;4.97;;;;;;;12.48;100.00;100653.06;5158258;27;20050;-59
2023/09/05 00:19:28;;;;;;;10.25;5.22;;;;;;;12.46;100.00;100649.88;5158265;27;20372;-58
2023/09/05 00:21:55;;;;;;;8.93;4.82;;;;;;;12.46;100.00;100657.28;5158592;27;20054;-61
2023/09/05 00:24:31;;;;;;;9.20;4.53;;;;;;;12.39;100.00;100651.53;5158391;27;20047;-60
2023/09/05 00:26:57;;;;;;;12.05;5.47;;;;;;;12.38;100.00;100655.44;5158407;27;20114;-56
2023/09/05 00:29:25;;;;;;;8.40;4.70;;;;;;;12.39;100.00;100651.53;5158269;27;20051;-60
2023/09/05 00:31:51;;;;;;;7.95;4.80;;;;;;;12.36;100.00;100652.22;5158568;27;20047;-55
2023/09/05 00:34:17;;;;;;;6.45;4.90;;;;;;;12.31;100.00;100642.25;5158114;27;20061;-56
2023/09/05 00:36:43;;;;;;;10.27;5.22;;;;;;;12.24;100.00;100639.28;5158407;27;20054;-60
2023/09/05 00:39:09;;;;;;;8.38;4.75;;;;;;;12.23;100.00;100635.72;5158003;27;20442;-57
2023/09/05 00:41:37;;;;;;;11.63;5.18;;;;;;;12.26;100.00;100642.47;5158081;27;20050;-58
2023/09/05 00:44:04;;;;;;;7.75;4.65;;;;;;;12.24;100.00;100642.81;5157959;27;20054;-61
2023/09/05 00:46:32;;;;;;;8.35;4.57;;;;;;;12.23;100.00;100646.72;5158230;27;20392;-60
2023/09/05 00:49:02;;;;;;;9.75;5.03;;;;;;;12.22;100.00;100650.59;5158197;27;20077;-55
2023/09/05 00:51:30;;;;;;;8.25;4.95;;;;;;;12.23;100.00;100646.72;5158015;27;20141;-61
2023/09/05 00:53:56;;;;;;;13.00;5.72;;;;;;;12.20;100.00;100639.16;5158098;27;20150;-60
2023/09/05 00:56:23;;;;;;;6.68;4.70;;;;;;;12.12;100.00;100647.47;5158012;27;20047;-57
2023/09/05 00:58:49;;;;;;;8.68;4.38;;;;;;;12.06;100.00;100652.38;5158219;27;20051;-58
2023/09/05 01:01:15;;;;;;;12.20;5.13;;;;;;;12.08;100.00;100655.59;5157832;27;20055;-62
2023/09/05 01:03:41;;;;;;;8.38;5.10;;;;;;;11.99;100.00;100647.41;5158003;27;20059;-61
2023/09/05 01:06:12;;;;;;;7.40;4.97;;;;;;;11.94;100.00;100653.16;5157665;27;20065;-58
2023/09/05 01:08:43;;;;;;;7.53;4.93;;;;;;;12.01;100.00;100647.09;5158056;27;20563;-60
2023/09/05 01:11:14;;;;;;;12.02;5.57;;;;;;;11.92;100.00;100651.88;5157921;27;20398;-56
2023/09/05 01:13:41;;;;;;;11.15;5.45;;;;;;;11.99;100.00;100652.13;5157431;27;20051;-61
2023/09/05 01:16:08;;;;;;;10.77;6.03;;;;;;;11.92;100.00;100651.88;5157856;27;20145;-55
2023/09/05 01:18:34;;;;;;;11.85;5.63;;;;;;;11.87;100.00;100641.09;5157468;27;20331;-56
2023/09/05 01:21:11;;;;;;;8.93;5.82;;;;;;;11.88;100.00;100646.25;5157721;27;20103;-62
2023/09/05 01:23:42;;;;;;;9.05;4.90;;;;;;;11.89;100.00;100647.03;5157537;27;20051;-59
2023/09/05 01:26:10;;;;;;;5.85;4.68;;;;;;;11.90;100.00;100640.44;5157892;27;20368;-57
2023/09/05 01:28:41;;;;;;;8.02;5.38;;;;;;;11.87;100.00;100632.84;5157428;27;20050;-60
2023/09/05 01:31:08;;;;;;;7.85;5.50;;;;;;;11.87;100.00;100633.66;5157920;27;20042;-59
2023/09/05 01:33:37;;;;;;;8.00;5.18;;;;;;;11.83;100.00;100634.63;5157217;27;20051;-58
2023/09/05 01:36:04;;;;;;;8.60;5.00;;;;;;;11.81;100.00;100642.41;5157253;27;20404;-58
2023/09/05 01:38:30;;;;;;;17.73;5.72;;;;;;;11.77;100.00;100631.28;5157565;27;20060;-60
2023/09/05 01:40:56;;;;;;;12.13;5.53;;;;;;;11.69;100.00;100630.22;5157178;27;20050;-57
2023/09/05 01:43:23;;;;;;;8.32;4.53;;;;;;;11.70;100.00;100626.34;5157562;27;20301;-60
2023/09/05 01:45:49;;;;;;;8.73;5.18;;;;;;;11.69;100.00;100621.16;5157318;27;20047;-62
2023/09/05 01:48:15;;;;;;;8.43;5.45;;;;;;;11.65;100.00;100623.00;5157593;27;20051;-58
2023/09/05 01:50:41;;;;;;;9.82;4.85;;;;;;;11.61;100.00;100625.59;5157172;27;20047;-57
2023/09/05 01:53:07;;;;;;;7.60;5.13;;;;;;;11.61;100.00;100630.31;5157780;27;20047;-60
2023/09/05 01:55:33;;;;;;;11.40;5.05;;;;;;;11.55;100.00;100627.75;5160727;27;20054;-61
2023/09/05 01:57:59;;;;;;;5.22;4.53;;;;;;;11.49;100.00;100626.34;5161078;27;20055;-55
2023/09/05 02:00:26;;;;;;;6.43;4.35;;;;;;;11.55;100.00;100626.94;5160518;27;20049;-55
2023/09/05 02:02:52;;;;;;;15.93;5.97;;;;;;;11.48;100.00;100629.44;5160974;27;20084;-60
2023/09/05 02:05:18;;;;;;;9.20;4.68;;;;;;;11.47;100.00;100630.56;5160992;27;20047;-59
2023/09/05 02:07:44;;;;;;;13.45;5.57;;;;;;;11.42;100.00;100623.31;5160347;27;20058;-55
2023/09/05 02:10:10;;;;;;;12.55;5.80;;;;;;;11.46;100.00;100618.78;5160535;27;20049;-56
2023/09/05 02:12:36;;;;;;;9.63;5.45;;;;;;;11.43;100.00;100613.13;5160399;27;20373;-62
2023/09/05 02:15:04;;;;;;;10.30;5.18;;;;;;;11.44;100.00;100607.34;5160693;27;20133;-60
2023/09/05 02:17:31;;;;;;;7.30;4.90;;;;;;;11.43;100.00;100602.16;5160356;27;20043;-57
2023/09/05 02:19:57;;;;;;;8.73;5.85;;;;;;;11.40;100.00;100613.84;5160575;27;20058;-61
2023/09/05 02:22:23;;;;;;;9.35;5.03;;;;;;;11.37;100.00;100612.56;5160313;27;20047;-57
2023/09/05 02:24:50;;;;;;;9.68;4.80;;;;;;;11.28;100.00;100612.63;5160674;27;20062;-58
2023/09/05 02:27:16;;;;;;;6.60;5.10;;;;;;;11.27;100.00;100612.97;5160646;27;20087;-58
2023/09/05 02:29:42;;;;;;;9.93;5.03;;;;;;;11.23;100.00;100612.00;5160841;27;20046;-61
2023/09/05 02:32:08;;;;;;;13.40;5.75;;;;;;;11.23;100.00;100606.50;5160311;27;20331;-59
2023/09/05 02:34:35;;;;;;;13.27;6.13;;;;;;;11.26;100.00;100605.84;5159946;27;20054;-62
2023/09/05 02:37:04;;;;;;;20.52;6.57;;;;;;;11.23;100.00;100610.09;5160274;27;20050;-58
2023/09/05 02:39:30;;;;;;;10.05;6.03;;;;;;;11.24;100.00;100606.19;5160077;27;20146;-59
2023/09/05 02:41:56;;;;;;;10.43;5.35;;;;;;;11.18;100.00;100613.00;5160194;27;20057;-57
2023/09/05 02:44:22;;;;;;;8.93;5.40;;;;;;;11.21;100.00;100606.06;5159814;27;20055;-57
2023/09/05 02:46:49;;;;;;;8.65;5.60;;;;;;;11.18;100.00;100604.78;5160099;27;20119;-62
2023/09/05 02:49:15;;;;;;;10.27;5.55;;;;;;;11.17;100.00;100610.63;5159759;27;20137;-58
2023/09/05 02:51:41;;;;;;;12.55;6.13;;;;;;;11.15;100.00;100599.94;5160182;27;20046;-61
2023/09/05 02:54:07;;;;;;;14.52;6.40;;;;;;;11.17;100.00;100603.19;5159657;27;20103;-60
2023/09/05 02:56:33;;;;;;;8.68;5.47;;;;;;;11.15;100.00;100597.19;5160114;27;20047;-55
2023/09/05 02:58:59;;;;;;;11.77;5.95;;;;;;;11.16;100.00;100592.50;5159557;27;20046;-55
2023/09/05 03:01:25;;;;;;;15.35;6.75;;;;;;;11.12;100.00;100591.59;5159371;27;20055;-60
2023/09/05 03:03:51;;;;;;;13.77;5.97;;;;;;;11.04;100.00;100591.31;5159257;27;20328;-59
2023/09/05 03:06:18;;;;;;;10.80;5.25;;;;;;;11.07;100.00;100581.63;5159757;27;20058;-56
2023/09/05 03:08:45;;;;;;;12.95;6.72;;;;;;;11.06;100.00;100583.56;5159736;27;20047;-60
2023/09/05 03:11:13;;;;;;;10.50;5.78;;;;;;;11.06;100.00;100572.59;5159395;27;20058;-57
2023/09/05 03:13:39;;;;;;;11.52;6.53;;;;;;;11.09;100.00;100573.84;5159506;27;20050;-57
2023/09/05 03:16:05;;;;;;;10.65;6.35;;;;;;;11.08;100.00;100585.97;5159477;27;20088;-61
2023/09/05 03:18:31;;;;;;;7.80;5.13;;;;;;;11.06;100.00;100583.56;5159772;27;20043;-60
2023/09/05 03:20:58;;;;;;;7.05;4.93;;;;;;;11.07;100.00;100585.16;5159486;27;20050;-59
2023/09/05 03:23:24;;;;;;;7.57;5.53;;;;;;;11.05;100.00;100583.88;5159682;27;20050;-61
2023/09/05 03:25:52;;;;;;;9.43;5.57;;;;;;;11.03;100.00;100594.41;5159213;27;20083;-55
2023/09/05 03:28:18;;;;;;;9.23;5.55;;;;;;;10.98;100.00;100591.84;5159645;27;20051;-61
2023/09/05 03:30:44;;;;;;;11.50;5.13;;;;;;;10.99;100.00;100593.44;5159109;27;20055;-57
2023/09/05 03:33:10;;;;;;;10.07;5.85;;;;;;;10.99;100.00;100593.44;5159256;27;20057;-59
2023/09/05 03:35:36;;;;;;;14.40;6.68;;;;;;;10.97;100.00;100590.25;5159334;27;20043;-56
2023/09/05 03:38:05;;;;;;;14.45;6.85;;;;;;;10.99;100.00;100585.19;5159173;27;20047;-62
2023/09/05 03:40:31;;;;;;;12.82;5.90;;;;;;;11.01;100.00;100596.66;5159311;27;20069;-62
2023/09/05 03:42:58;;;;;;;8.88;4.95;;;;;;;11.03;100.00;100597.16;5158887;27;20046;-56
2023/09/05 03:45:27;;;;;;;7.63;5.22;;;;;;;11.03;100.00;100605.38;5159323;27;20051;-59
2023/09/05 03:47:53;;;;;;;9.80;5.63;;;;;;;11.07;100.00;100609.84;5158925;27;20050;-56
2023/09/05 03:50:19;;;;;;;10.88;5.35;;;;;;;11.11;100.00;100609.19;5159147;27;20400;-58
2023/09/05 03:52:45;;;;;;;12.48;5.47;;;;;;;11.16;100.00;100603.50;5158778;27;20058;-55
2023/09/05 03:55:12;;;;;;;9.60;5.68;;;;;;;11.21;100.00;100606.06;5159172;27;20107;-60
2023/09/05 03:57:38;;;;;;;16.70;7.15;;;;;;;11.11;100.00;100603.69;5158651;27;20043;-57
2023/09/05 04:00:07;;;;;;;20.02;6.72;;;;;;;11.19;100.00;100605.56;5158883;27;20047;-57
2023/09/05 04:02:33;;;;;;;8.68;5.65;;;;;;;11.27;100.00;100602.78;5158679;27;20412;-60
2023/09/05 04:04:59;;;;;;;9.43;5.38;;;;;;;11.58;100.00;100609.00;5158770;27;20339;-55
2023/09/05 04:07:25;;;;;;;10.85;5.30;;;;;;;12.34;100.00;100629.78;5158850;27;20115;-57
2023/09/05 04:09:53;;;;;;;11.32;5.05;;;;;;;12.97;100.00;100657.00;5158582;27;20054;-60
2023/09/05 04:12:19;;;;;;;14.40;4.40;;;;;;;13.63;100.00;100620.88;5159184;27;20051;-61
2023/09/05 04:14:45;;;;;;;9.80;4.13;;;;;;;14.29;100.00;100426.41;5158373;27;20119;-58
2023/09/05 04:17:12;;;;;;;9.13;4.30;;;;;;;14.62;100.00;100056.19;5158111;27;20077;-55
2023/09/05 04:19:38;;;;;;;6.28;4.95;;;;;;;15.19;100.00;99728.34;5158571;27;20333;-55
2023/09/05 04:22:04;;;;;;;10.07;5.53;;;;;;;15.45;100.00;99445.56;5159020;27;20050;-60
2023/09/05 04:24:30;;;;;;;7.03;4.68;;;;;;;15.85;100.00;99316.50;5158110;27;20328;-58
2023/09/05 04:26:56;;;;;;;9.23;4.35;;;;;;;16.20;100.00;99249.28;5158651;27;20050;-56
2023/09/05 04:29:22;;;;;;;4.70;4.15;;;;;;;16.71;100.00;99231.25;5158456;27;20057;-61
2023/09/05 04:31:48;;;;;;;10.23;4.53;;;;;;;16.86;100.00;99256.91;5158338;27;20340;-57
2023/09/05 04:34:16;;;;;;;7.22;4.30;;;;;;;16.99;100.00;99273.81;5158330;27;20066;-55
2023/09/05 04:36:42;;;;;;;6.82;4.32;;;;;;;17.38;100.00;99315.13;5157925;27;20121;-57
2023/09/05 04:39:08;;;;;;;8.65;4.72;;;;;;;17.60;100.00;99324.06;5158329;27;20320;-61
2023/09/05 04:41:34;;;;;;;9.38;4.70;;;;;;;17.97;100.00;99361.41;5158061;27;20392;-55
2023/09/05 04:44:00;;;;;;;9.82;4.85;;;;;;;18.16;100.00;99400.88;5158354;27;20058;-60
2023/09/05 04:46:37;;;;;;;7.53;4.57;;;;;;;18.57;100.00;99440.53;5157832;27;20415;-61
2023/09/05 04:49:04;;;;;;;13.00;5.20;;;;;;;18.56;100.00;99466.72;5158314;27;20143;-56
2023/09/05 04:51:31;;;;;;;13.50;4.88;;;;;;;19.03;100.00;99496.81;5157785;27;20058;-62
2023/09/05 04:53:57;;;;;;;9.80;6.53;;;;;;;19.10;100.00;99532.06;5157817;27;20042;-61
2023/09/05 04:56:23;;;;;;;14.25;5.13;;;;;;;19.26;100.00;99535.06;5157721;27;20054;-57
2023/09/05 04:58:49;;;;;;;9.68;4.57;;;;;;;19.45;100.00;99558.66;5157176;27;20055;-59
2023/09/05 05:01:17;;;;;;;11.10;4.10;;;;;;;20.01;100.00;99617.59;5157680;27;20061;-58
2023/09/05 05:03:43;;;;;;;7.90;4.15;;;;;;;20.14;100.00;99649.22;5157506;27;20115;-61
2023/09/05 05:06:09;;;;;;;10.95;5.40;;;;;;;20.05;100.00;99656.50;5157949;27;20077;-59
2023/09/05 05:08:36;;;;;;;11.23;6.07;;;;;;;20.29;100.00;99623.97;5157580;27;20046;-57
2023/09/05 05:11:04;;;;;;;7.55;4.78;;;;;;;20.79;100.00;99665.84;5157915;27;20055;-59
2023/09/05 05:13:30;;;;;;;16.05;5.53;;;;;;;21.06;100.00;99715.16;5157294;27;20114;-54
2023/09/05 05:15:56;;;;;;;6.00;4.57;;;;;;;21.26;100.00;99734.75;5157700;27;20046;-56
2023/09/05 05:18:22;;;;;;;9.13;5.25;;;;;;;21.44;100.00;99745.66;5157196;27;20336;-61
2023/09/05 05:20:48;;;;;;;9.90;5.10;;;;;;;21.65;100.00;99764.78;5157740;27;20050;-57
2023/09/05 05:23:14;;;;;;;8.20;5.07;;;;;;;22.13;100.00;99776.69;5157432;27;20046;-53
2023/09/05 05:25:41;;;;;;;7.32;3.80;;;;;;;22.21;100.00;99786.53;5157265;27;20472;-58
2023/09/05 05:28:07;;;;;;;9.38;6.55;;;;;;;22.47;100.00;99793.19;5157856;27;20057;-57
2023/09/05 05:30:35;;;;;;;5.63;4.47;;;;;;;22.58;100.00;99801.34;5160952;27;20115;-55
2023/09/05 05:33:01;;;;;;;9.95;4.57;;;;;;;22.78;100.00;99828.03;5160942;27;20074;-53
2023/09/05 05:35:27;;;;;;;11.70;6.50;;;;;;;23.28;100.00;99847.75;5161023;27;20327;-58
2023/09/05 05:37:53;;;;;;;9.07;4.90;;;;;;;23.59;100.00;99859.41;5161168;27;20055;-57
2023/09/05 05:40:19;;;;;;;7.20;4.43;;;;;;;23.42;100.00;99858.63;5160867;27;20046;-52
2023/09/05 05:42:46;;;;;;;9.30;4.38;;;;;;;23.44;100.00;99851.38;5161004;27;20046;-57
2023/09/05 05:45:13;;;;;;;7.75;5.80;;;;;;;23.85;100.00;99871.59;5160565;27;20062;-57
2023/09/05 05:47:39;;;;;;;7.32;4.72;;;;;;;23.71;100.00;99881.13;5160987;27;20095;-58
2023/09/05 05:50:06;;;;;;;11.93;4.35;;;;;;;23.93;100.00;99876.59;5160393;27;20046;-54
2023/09/05 05:52:32;;;;;;;5.50;3.60;;;;;;;24.48;100.00;99882.38;5160349;27;20047;-57
2023/09/05 05:54:58;;;;;;;9.25;4.22;;;;;;;24.62;100.00;99889.59;5160395;27;20047;-53
2023/09/05 05:57:24;;;;;;;9.60;5.20;;;;;;;25.13;100.00;99886.94;5160228;27;20434;-57
2023/09/05 05:59:51;;;;;;;8.38;4.68;;;;;;;25.29;100.00;99898.09;5160557;27;20050;-52
2023/09/05 06:02:17;;;;;;;9.48;5.00;;;;;;;25.35;100.00;99901.09;5160085;27;20400;-51
2023/09/05 06:04:43;;;;;;;6.20;4.20;;;;;;;25.25;100.00;99914.22;5160528;27;20332;-55
2023/09/05 06:07:09;;;;;;;10.02;4.18;;;;;;;25.77;100.00;99909.41;5160285;27;20047;-55
2023/09/05 06:09:36;;;;;;;6.22;5.00;;;;;;;25.91;100.00;99902.56;5160373;27;20042;-54
2023/09/05 06:12:02;;;;;;;7.57;4.72;;;;;;;26.05;100.00;99910.50;5160058;27;20050;-57
2023/09/05 06:14:28;;;;;;;11.10;4.93;;;;;;;26.41;100.00;99910.06;5160403;27;20050;-55
2023/09/05 06:16:54;;;;;;;8.85;4.65;;;;;;;26.32;100.00;99915.59;5159173;27;20057;-53
2023/09/05 06:19:20;;;;;;;9.32;4.68;;;;;;;26.52;100.00;99920.94;5159771;27;20054;-55
2023/09/05 06:21:48;;;;;;;6.13;4.20;;;;;;;26.35;96.57;99922.34;5159881;27;20454;-57
2023/09/05 06:24:14;;;;;;;7.28;4.72;;;;;;;26.62;97.92;99928.22;5159923;27;20047;-56
2023/09/05 06:26:41;;;;;;;9.13;4.25;;;;;;;26.70;nan;99932.34;5159836;27;20057;-56
2023/09/05 06:29:07;;;;;;;10.20;4.88;;;;;;;26.77;91.12;99930.53;5159862;27;20047;-55
2023/09/05 06:31:33;;;;;;;7.13;4.40;;;;;;;26.77;93.54;99930.53;5160144;27;20145;-55
2023/09/05 06:34:00;;;;;;;5.22;3.97;;;;;;;26.86;83.89;99933.41;5159483;27;20050;-55
2023/09/05 06:36:26;;;;;;;4.90;3.40;;;;;;;27.12;81.19;99940.44;5160381;27;20047;-56
2023/09/05 06:38:52;;;;;;;13.45;4.10;;;;;;;27.55;83.20;99933.19;5158886;27;20047;-57
2023/09/05 06:41:18;;;;;;;7.30;4.07;;;;;;;27.81;80.37;99942.25;5159689;27;20103;-56
2023/09/05 06:43:44;;;;;;;6.53;3.40;;;;;;;28.04;79.94;99928.84;5159461;27;20070;-57
2023/09/05 06:46:10;;;;;;;8.23;3.80;;;;;;;27.99;78.96;99926.63;5159748;27;20051;-59
2023/09/05 06:48:39;;;;;;;12.98;4.25;;;;;;;28.12;76.50;99925.28;5159095;27;20051;-58
2023/09/05 06:51:06;;;;;;;5.82;3.85;;;;;;;28.28;74.70;99938.28;5158876;27;20047;-62
2023/09/05 06:53:33;;;;;;;8.35;3.70;;;;;;;28.11;72.65;99937.00;5159453;27;20091;-61
2023/09/05 06:55:59;;;;;;;10.80;4.50;;;;;;;28.53;73.76;99942.09;5159367;27;20429;-60
2023/09/05 06:58:27;;;;;;;9.93;4.57;;;;;;;28.65;72.14;99938.31;5159551;27;20047;-56
2023/09/05 07:00:54;;;;;;;12.90;5.95;;;;;;;28.85;71.49;99951.94;5159372;27;20381;-60
2023/09/05 07:03:21;;;;;;;8.13;4.25;;;;;;;28.82;68.71;99947.25;5159446;27;20315;-60
2023/09/05 07:05:47;;;;;;;11.88;4.43;;;;;;;29.15;70.04;99944.56;5159640;27;20065;-55
2023/09/05 07:08:13;;;;;;;9.27;3.97;;;;;;;29.21;68.50;99953.16;5159492;27;20098;-59
2023/09/05 07:10:39;;;;;;;7.15;3.70;;;;;;;29.29;65.27;99951.56;5159456;27;20082;-59
2023/09/05 07:13:06;;;;;;;10.30;4.00;;;;;;;29.26;63.93;99952.53;5159768;27;20047;-55
2023/09/05 07:15:32;;;;;;;8.30;3.85;;;;;;;29.18;65.69;99946.44;5159364;27;20069;-57
2023/09/05 07:17:58;;;;;;;4.22;3.03;;;;;;;28.90;64.47;99942.84;5159000;27;20051;-60
2023/09/05 07:20:24;;;;;;;3.83;2.92;;;;;;;28.75;64.65;99953.97;5159247;27;20053;-60
2023/09/05 07:22:50;;;;;;;6.55;3.15;;;;;;;28.80;64.18;99955.41;5158832;27;20394;-57
2023/09/05 07:25:18;;;;;;;4.07;3.10;;;;;;;29.11;64.02;99946.75;5158885;27;20050;-56
2023/09/05 07:27:44;;;;;;;4.53;3.22;;;;;;;28.93;64.32;99943.97;5158441;27;20058;-55
2023/09/05 07:30:10;;;;;;;4.97;2.70;;;;;;;29.14;61.61;99947.88;5158746;27;20054;-56
2023/09/05 07:32:38;;;;;;;4.00;2.53;;;;;;;28.57;61.81;99943.50;5158382;27;20051;-56
2023/09/05 07:35:05;;;;;;;3.25;2.42;;;;;;;28.45;61.93;99940.81;5158808;27;20370;-59
2023/09/05 07:37:31;;;;;;;5.05;3.58;;;;;;;28.87;61.77;99937.38;5158317;27;20061;-61
2023/09/05 07:39:57;;;;;;;11.35;3.80;;;;;;;29.27;60.59;99943.59;5158703;27;20042;-56
2023/09/05 07:42:24;;;;;;;5.03;3.13;;;;;;;29.62;60.47;99939.56;5158378;27;20050;-59
2023/09/05 07:44:51;;;;;;;7.10;2.83;;;;;;;29.51;60.38;99935.19;5158837;27;20055;-50
2023/09/05 07:47:18;;;;;;;6.20;3.70;;;;;;;29.42;60.99;99935.22;5158310;27;20054;-53
2023/09/05 07:49:44;;;;;;;8.27;3.05;;;;;;;29.44;61.87;99935.53;5158124;27;20435;-52
2023/09/05 07:52:10;;;;;;;7.65;4.25;;;;;;;29.01;61.19;99931.88;5157269;27;20201;-55
2023/09/05 07:54:37;;;;;;;5.55;3.75;;;;;;;28.96;62.75;99937.38;5158054;27;20404;-56
2023/09/05 07:57:03;;;;;;;5.05;3.92;;;;;;;28.99;62.95;99928.75;5158221;27;20404;-57
2023/09/05 07:59:31;;;;;;;10.35;4.18;;;;;;;29.37;63.73;99930.22;5158333;27;20142;-55
2023/09/05 08:01:57;;;;;;;9.55;3.78;;;;;;;29.19;63.09;99936.72;5158473;27;20284;-55
2023/09/05 08:04:23;;;;;;;5.75;3.60;;;;;;;29.52;61.16;99941.63;5158087;27;20058;-54
2023/09/05 08:06:50;;;;;;;5.25;3.55;;;;;;;29.89;59.04;99930.97;5158317;27;20099;-60
2023/09/05 08:09:16;;;;;;;9.00;4.93;;;;;;;29.24;58.91;99930.41;5157814;27;20047;-56
2023/09/05 08:11:42;;;;;;;7.25;3.10;;;;;;;29.57;59.50;99932.50;5158395;27;20046;-53
2023/09/05 08:14:08;;;;;;;5.15;2.70;;;;;;;29.59;58.77;99932.81;5157739;27;20046;-55
2023/09/05 08:16:37;;;;;;;6.00;2.60;;;;;;;29.70;59.11;99930.28;5157833;27;20451;-58
2023/09/05 08:19:04;;;;;;;4.57;2.60;;;;;;;29.65;57.30;99932.97;5158523;27;20061;-59
2023/09/05 08:21:30;;;;;;;3.20;2.60;;;;;;;29.55;57.22;99927.31;5157832;27;20068;-60
2023/09/05 08:23:56;;;;;;;7.22;4.00;;;;;;;29.76;57.33;99934.03;5158273;27;20087;-53
2023/09/05 08:26:23;;;;;;;5.45;2.90;;;;;;;30.08;57.83;99922.38;5158101;27;20304;-58
2023/09/05 08:28:49;;;;;;;4.88;2.63;;;;;;;30.11;56.24;99929.88;5158306;27;20057;-57
2023/09/05 08:31:15;;;;;;;2.97;2.60;;;;;;;30.29;57.03;99915.66;5157751;27;20066;-58
2023/09/05 08:33:42;;;;;;;4.53;2.83;;;;;;;30.08;56.17;99925.19;5157957;27;20050;-54
2023/09/05 08:36:09;;;;;;;2.85;2.53;;;;;;;29.97;56.59;99931.38;5157733;27;20066;-58
2023/09/05 08:38:37;;;;;;;5.53;2.88;;;;;;;29.65;57.24;99927.31;5158268;27;20050;-55
2023/09/05 08:41:03;;;;;;;4.13;2.95;;;;;;;29.88;58.02;99934.25;5157592;27;20328;-58
2023/09/05 08:43:30;;;;;;;5.90;4.32;;;;;;;29.97;57.29;99932.16;5158126;27;20054;-55
2023/09/05 08:46:00;;;;;;;7.18;3.15;;;;;;;29.71;56.92;99928.22;5157576;27;20380;-54
2023/09/05 08:48:27;;;;;;;5.70;3.38;;;;;;;29.61;56.51;99921.84;5157606;27;20057;-53
2023/09/05 08:50:55;;;;;;;7.15;3.20;;;;;;;29.82;56.63;99919.22;5157833;27;20110;-54
2023/09/05 08:53:28;;;;;;;4.55;2.50;;;;;;;29.93;56.19;99923.09;5157687;27;20047;-56
2023/09/05 08:55:55;;;;;;;4.78;2.92;;;;;;;29.26;56.21;99922.25;5157491;27;20058;-55
2023/09/05 08:58:22;;;;;;;5.22;2.35;;;;;;;29.29;56.41;99920.50;5157908;27;20050;-51
2023/09/05 09:00:48;;;;;;;5.78;2.65;;;;;;;29.07;57.49;99923.56;5157631;27;20047;-54
2023/09/05 09:03:14;;;;;;;4.50;2.75;;;;;;;29.28;57.19;99918.94;5158942;27;20137;-58
2023/09/05 09:05:45;;;;;;;8.10;3.33;;;;;;;29.32;57.11;99916.72;5161618;27;20046;-55
2023/09/05 09:08:11;;;;;;;5.80;2.70;;;;;;;29.81;57.88;99909.19;5161017;27;20357;-51
2023/09/05 09:10:38;;;;;;;3.17;2.58;;;;;;;29.71;57.08;99917.69;5161260;27;20047;-54
2023/09/05 09:13:17;;;;;;;4.07;2.78;;;;;;;29.43;56.18;99911.38;5161330;27;20061;-57
2023/09/05 09:15:46;;;;;;;7.10;2.63;;;;;;;29.71;56.69;99905.63;5160981;27;20061;-54
2023/09/05 09:18:12;;;;;;;4.47;2.30;;;;;;;29.42;57.63;99901.31;5161226;27;20142;-56
2023/09/05 09:20:43;;;;;;;6.38;2.90;;;;;;;29.74;56.69;99899.78;5160825;27;20381;-55
2023/09/05 09:23:09;;;;;;;3.90;2.67;;;;;;;29.53;57.25;99903.66;5161320;27;20194;-51
2023/09/05 09:25:36;;;;;;;4.03;2.58;;;;;;;29.67;58.22;99907.84;5160608;27;20137;-55
2023/09/05 09:28:02;;;;;;;6.70;3.72;;;;;;;29.58;57.45;99905.03;5161482;27;20058;-51
2023/09/05 09:30:30;;;;;;;5.57;3.05;;;;;;;29.43;59.01;99899.31;5161020;27;20080;-58
2023/09/05 09:32:56;;;;;;;5.95;3.08;;;;;;;29.73;59.20;99897.47;5161069;27;20145;-58
2023/09/05 09:35:23;;;;;;;4.45;2.80;;;;;;;29.72;58.07;99888.19;5161028;27;20042;-56
2023/09/05 09:37:49;;;;;;;10.55;2.90;;;;;;;29.13;59.18;99884.19;5160435;27;20055;-57
2023/09/05 09:40:16;;;;;;;4.85;3.20;;;;;;;28.95;59.93;99880.13;5160909;27;20277;-57
2023/09/05 09:42:46;;;;;;;5.25;2.70;;;;;;;29.35;58.39;99889.59;5160847;27;20051;-52
2023/09/05 09:45:12;;;;;;;6.28;3.00;;;;;;;29.39;58.33;99884.53;5160783;27;20050;-52
2023/09/05 09:47:45;;;;;;;4.00;2.40;;;;;;;29.34;59.56;99879.56;5160459;27;20050;-56
2023/09/05 09:50:12;;;;;;;;;;;;;;;28.94;60.40;99872.13;5160989;27;20220;-57
2023/09/05 09:52:43;;;;;;;4.15;3.17;;;;;;;29.00;59.47;99873.88;5160319;27;19926;-57
2023/09/05 09:55:11;;;;;;;4.60;2.95;;;;;;;29.10;58.33;99877.44;5161059;27;20054;-55
2023/09/05 09:57:44;;;;;;;4.72;2.80;;;;;;;28.36;60.00;99873.91;5160113;27;20046;-58
2023/09/05 10:00:15;;;;;;;4.43;2.87;;;;;;;27.74;61.19;99865.66;5160439;27;20491;-55
2023/09/05 10:02:43;;;;;;;2.97;2.28;;;;;;;26.67;65.57;99859.38;5160288;27;20291;-53
2023/09/05 10:05:10;;;;;;;5.70;2.53;;;;;;;26.31;67.85;99859.84;5160380;27;20051;-56
2023/09/05 10:07:37;;;;;;;3.58;2.40;;;;;;;26.98;68.54;99860.16;5160379;27;20050;-52
2023/09/05 10:10:04;;;;;;;6.28;3.50;;;;;;;27.73;66.21;99855.66;5160122;27;20046;-56
2023/09/05 10:12:31;;;;;;;5.50;3.15;;;;;;;28.05;62.21;99857.13;5160346;27;20058;-55
2023/09/05 10:15:01;;;;;;;5.22;2.80;;;;;;;27.67;62.62;99856.25;5158957;27;20087;-53
2023/09/05 10:17:29;;;;;;;8.95;7.40;;;;;;;26.95;66.07;99855.47;5160412;27;20058;-58
2023/09/05 10:19:57;;;;;;;3.42;2.78;;;;;;;26.63;69.32;99853.09;5159980;27;20046;-54
2023/09/05 10:22:24;;;;;;;5.03;2.53;;;;;;;25.98;69.94;99844.09;5160306;27;20050;-53
2023/09/05 10:24:51;;;;;;;7.15;2.83;;;;;;;25.83;73.44;99850.69;5159865;27;20064;-55
2023/09/05 10:27:17;;;;;;;5.50;2.28;;;;;;;25.40;76.79;99838.03;5160131;27;20051;-53
2023/09/05 10:29:45;;;;;;;6.57;2.72;;;;;;;25.18;76.64;99840.69;5159973;27;20146;-58
2023/09/05 10:32:14;;;;;;;3.55;2.85;;;;;;;24.85;78.93;99838.84;5159893;27;20129;-58
2023/09/05 10:34:55;;;;;;;3.47;2.85;;;;;;;24.65;83.65;99827.81;5160056;27;20358;-59
2023/09/05 10:37:23;;;;;;;5.38;2.90;;;;;;;24.47;83.86;99821.94;5159609;27;20294;-54
2023/09/05 10:39:50;;;;;;;4.78;3.10;;;;;;;24.32;85.32;99826.34;5160084;27;20050;-57
2023/09/05 10:42:17;;;;;;;9.15;2.78;;;;;;;24.02;88.98;99816.34;5159574;27;20047;-58
2023/09/05 10:44:45;;;;;;;5.32;3.28;;;;;;;24.42;85.37;99823.28;5159959;27;20087;-60
2023/09/05 10:47:25;;;;;;;3.10;2.78;;;;;;;24.68;83.09;99814.16;5159266;27;20491;-60
2023/09/05 10:49:57;;;;;;;5.35;2.60;;;;;;;25.00;80.99;99811.16;5159495;27;20051;-58
2023/09/05 10:52:23;;;;;;;6.57;3.20;;;;;;;24.92;83.85;99809.00;5159819;27;20057;-52
2023/09/05 10:54:49;;;;;;;4.43;2.90;;;;;;;24.86;83.45;99820.81;5159340;27;20054;-57
2023/09/05 10:57:37;;;;;;;6.22;3.30;;;;;;;24.90;83.30;99815.09;5159643;27;20046;-55
2023/09/05 11:00:26;;;;;;;3.00;2.28;;;;;;;24.69;83.51;99812.91;5159292;27;20054;-56
2023/09/05 11:02:55;;;;;;;2.30;2.08;;;;;;;24.63;85.46;99815.50;5159590;27;20051;-60
2023/09/05 11:05:23;;;;;;;1.80;1.70;;;;;;;24.70;85.58;99820.09;5159488;27;20055;-58
2023/09/05 11:07:51;;;;;;;7.40;3.47;;;;;;;24.39;90.26;99807.34;5159035;27;20054;-56
2023/09/05 11:10:25;;;;;;;6.70;3.00;;;;;;;24.34;87.65;99805.06;5159499;27;20083;-52
2023/09/05 11:12:51;;;;;;;5.45;2.20;;;;;;;24.25;87.28;99798.53;5159212;27;20050;-55
2023/09/05 11:15:28;;;;;;;5.75;2.60;;;;;;;24.58;86.61;99802.78;5159547;27;20047;-60
2023/09/05 11:17:59;;;;;;;2.85;2.47;;;;;;;24.46;84.36;99806.38;5158988;27;20142;-57
2023/09/05 11:20:39;;;;;;;4.93;2.70;;;;;;;24.31;90.14;99791.16;5159400;27;20088;-57
2023/09/05 11:23:15;;;;;;;4.05;1.85;;;;;;;24.52;88.87;99787.75;5158882;27;20058;-58
2023/09/05 11:25:43;;;;;;;4.45;2.50;;;;;;;24.54;87.56;99784.53;5158785;27;20400;-55